Time;durP1;ratioP1;P1;durP2;ratioP2;P2;SDS_P1;SDS_P2;PMS_P1;PMS_P2;Temp;Humidity;BMP_temperature;BMP_pressure;BME280_temperature;BME280_humidity;BME280_pressure;Samples;Min_cycle;Max_cycle;Signal;HPM_P1;HPM_P2
2023/10/08 00:01:50;;;;;;;10.60;5.75;;;;;;;16.03;48.42;100111.34;5121623;27;20076;-64
2023/10/08 00:04:18;;;;;;;10.65;5.32;;;;;;;15.87;50.91;100107.88;5121701;27;20047;-63
2023/10/08 00:06:45;;;;;;;10.40;5.13;;;;;;;15.86;51.56;100094.69;5122564;27;20051;-64
2023/10/08 00:09:11;;;;;;;9.35;5.30;;;;;;;15.84;52.08;100089.56;5122847;27;20023;-64
2023/10/08 00:11:37;;;;;;;8.77;5.45;;;;;;;15.90;51.60;100087.97;5123032;27;20038;-64
2023/10/08 00:14:08;;;;;;;8.63;5.22;;;;;;;15.97;52.81;100091.53;5123811;27;20031;-64
2023/10/08 00:16:34;;;;;;;10.77;4.93;;;;;;;16.03;51.81;100085.44;5123312;27;20036;-64
2023/10/08 00:19:02;;;;;;;9.68;5.72;;;;;;;16.07;52.72;100086.72;5123007;27;20333;-65
2023/10/08 00:21:27;;;;;;;13.80;6.22;;;;;;;16.05;52.29;100079.91;5122293;27;20359;-65
2023/10/08 00:23:59;;;;;;;9.45;5.22;;;;;;;16.05;52.93;100075.41;5122717;27;20026;-64
2023/10/08 00:26:31;;;;;;;10.82;5.95;;;;;;;16.03;52.94;100072.09;5122560;27;20036;-64
2023/10/08 00:29:17;;;;;;;10.98;5.45;;;;;;;16.05;51.96;100071.91;5132184;27;20027;-65
2023/10/08 00:31:45;;;;;;;12.20;5.60;;;;;;;15.97;51.01;100067.50;5122194;27;20039;-63
2023/10/08 00:34:12;;;;;;;10.98;5.45;;;;;;;15.93;51.83;100069.72;5122628;27;20035;-64
2023/10/08 00:36:42;;;;;;;10.57;5.90;;;;;;;15.85;51.87;100063.69;5131591;27;20058;-64
2023/10/08 00:39:43;;;;;;;11.57;5.50;;;;;;;15.87;51.76;100073.16;5123317;27;20070;-64
2023/10/08 00:42:04;;;;;;;11.25;4.90;;;;;;;15.80;51.47;100069.56;5123548;27;20063;-65
2023/10/08 00:44:30;;;;;;;9.50;4.80;;;;;;;15.64;51.79;100072.47;5125747;27;20046;-64
2023/10/08 00:47:00;;;;;;;8.02;4.85;;;;;;;15.73;51.43;100073.19;5122152;27;20043;-64
2023/10/08 00:49:46;;;;;;;8.05;4.63;;;;;;;15.73;51.47;100074.00;5122132;27;20035;-64
2023/10/08 00:54:55;;;;;;;10.77;4.80;;;;;;;15.61;51.89;100068.34;5121606;27;20348;-64
2023/10/08 00:57:27;;;;;;;7.35;4.28;;;;;;;15.68;51.97;100054.22;5121950;27;20349;-64
2023/10/08 00:59:59;;;;;;;7.43;4.20;;;;;;;15.77;50.56;100056.59;5122048;27;20041;-64
2023/10/08 01:02:46;;;;;;;6.35;4.18;;;;;;;15.85;50.28;100058.34;5122150;28;20031;-64
2023/10/08 01:05:18;;;;;;;7.47;4.40;;;;;;;15.90;49.67;100066.59;5120969;28;20323;-64
2023/10/08 01:07:48;;;;;;;8.25;4.05;;;;;;;15.77;50.59;100064.63;5121579;27;20031;-64
2023/10/08 01:10:19;;;;;;;7.70;4.50;;;;;;;15.84;50.73;100057.50;5120799;28;20039;-64
2023/10/08 01:15:23;;;;;;;8.57;3.85;;;;;;;15.84;50.28;100048.66;5124086;28;20040;-64
2023/10/08 01:18:35;;;;;;;9.20;3.80;;;;;;;15.79;50.31;100043.06;5128307;28;20186;-64
2023/10/08 01:20:49;;;;;;;7.60;4.03;;;;;;;15.77;49.92;100045.09;5115977;27;20349;-64
2023/10/08 01:23:20;;;;;;;6.38;3.60;;;;;;;15.78;49.77;100044.91;5127802;27;20046;-64
2023/10/08 01:25:57;;;;;;;7.15;3.80;;;;;;;15.74;50.16;100046.31;5126045;27;20091;-64
2023/10/08 01:28:29;;;;;;;5.95;3.88;;;;;;;15.75;49.80;100041.78;5126363;27;20036;-64
2023/10/08 01:30:57;;;;;;;6.45;3.40;;;;;;;15.58;49.83;100046.50;5126007;27;20265;-64
2023/10/08 01:33:26;;;;;;;7.63;4.47;;;;;;;15.62;49.88;100045.97;5126056;27;20032;-65
2023/10/08 01:35:52;;;;;;;5.32;3.83;;;;;;;15.58;48.93;100038.47;5135806;27;20084;-64
2023/10/08 01:38:23;;;;;;;9.00;4.43;;;;;;;15.63;49.90;100038.78;5125583;27;20035;-64
2023/10/08 01:40:51;;;;;;;5.97;4.07;;;;;;;15.58;50.39;100036.63;5125801;27;20046;-64
2023/10/08 01:43:17;;;;;;;5.47;3.70;;;;;;;15.57;51.08;100032.31;5126440;27;20061;-65
2023/10/08 01:45:43;;;;;;;5.68;3.67;;;;;;;15.69;50.58;100024.69;5126383;27;20036;-64
2023/10/08 01:48:09;;;;;;;6.15;4.03;;;;;;;15.64;48.74;100021.75;5125672;27;20031;-65
2023/10/08 01:50:36;;;;;;;7.35;4.00;;;;;;;15.57;48.64;100013.63;5125469;27;20080;-64
2023/10/08 01:53:01;;;;;;;7.20;3.40;;;;;;;15.55;49.71;100007.63;5124642;27;20039;-64
2023/10/08 01:55:30;;;;;;;5.30;3.75;;;;;;;15.64;49.17;100011.06;5125447;27;20048;-64
2023/10/08 01:57:56;;;;;;;8.63;4.60;;;;;;;15.64;50.07;100008.41;5126249;27;20348;-64
2023/10/08 02:00:22;;;;;;;6.93;3.80;;;;;;;15.68;49.90;100009.69;5125233;27;20050;-63
2023/10/08 02:02:53;;;;;;;6.80;4.53;;;;;;;15.69;49.68;99998.00;5132792;27;20055;-63
2023/10/08 02:05:20;;;;;;;7.45;4.03;;;;;;;15.67;48.86;100007.19;5125303;27;20094;-64
2023/10/08 02:07:46;;;;;;;7.05;4.70;;;;;;;15.64;49.78;100008.41;5124249;27;20054;-63
2023/10/08 02:10:14;;;;;;;7.28;4.43;;;;;;;15.54;50.15;100013.16;5125525;27;20281;-63
2023/10/08 02:12:42;;;;;;;6.65;4.45;;;;;;;15.64;50.73;100000.41;5124970;27;20045;-63
2023/10/08 02:15:11;;;;;;;8.45;3.92;;;;;;;15.80;50.48;99997.50;5125259;27;20044;-64
2023/10/08 02:17:36;;;;;;;8.98;4.47;;;;;;;15.91;49.97;99985.47;5127864;27;20065;-63
2023/10/08 02:20:05;;;;;;;8.50;4.57;;;;;;;16.10;49.72;99990.19;5130836;27;20040;-63
2023/10/08 02:22:31;;;;;;;6.88;3.78;;;;;;;16.24;48.75;99997.28;5124929;27;20027;-63
2023/10/08 02:25:01;;;;;;;7.50;4.07;;;;;;;16.39;48.16;99991.84;5134722;27;20077;-64
2023/10/08 02:27:32;;;;;;;9.65;4.35;;;;;;;16.45;48.42;100000.94;5134168;27;20111;-63
2023/10/08 02:29:58;;;;;;;9.50;4.70;;;;;;;16.52;48.00;99997.31;5124819;27;20031;-63
2023/10/08 02:32:23;;;;;;;12.27;5.35;;;;;;;16.52;48.59;99993.81;5129362;27;20039;-64
2023/10/08 02:34:50;;;;;;;10.32;4.22;;;;;;;16.51;48.72;99995.66;5125006;27;20046;-64
2023/10/08 02:37:16;;;;;;;6.88;4.60;;;;;;;16.35;49.01;99995.94;5124965;27;20174;-63
2023/10/08 02:39:42;;;;;;;7.55;4.60;;;;;;;16.23;49.10;99997.47;5124735;27;20039;-63
2023/10/08 02:42:10;;;;;;;6.00;4.03;;;;;;;15.99;49.49;100001.38;5125116;27;20039;-63
2023/10/08 02:44:41;;;;;;;7.93;4.13;;;;;;;15.91;49.89;99996.97;5125430;27;20046;-63
2023/10/08 02:47:20;;;;;;;8.98;4.63;;;;;;;15.73;50.55;99998.44;5125277;27;20126;-63
2023/10/08 02:49:48;;;;;;;9.32;4.75;;;;;;;15.76;50.48;99992.72;5123860;27;20377;-63
2023/10/08 02:52:15;;;;;;;10.50;4.80;;;;;;;15.69;50.84;99991.81;5124049;27;20335;-63
2023/10/08 02:54:41;;;;;;;8.52;5.88;;;;;;;15.59;50.91;99987.59;5124157;27;20036;-63
2023/10/08 02:57:13;;;;;;;11.80;6.25;;;;;;;15.81;49.88;99976.97;5123874;27;20050;-63
2023/10/08 02:59:40;;;;;;;12.98;6.97;;;;;;;15.93;49.93;99984.28;5133900;27;20483;-64
2023/10/08 03:02:13;;;;;;;13.27;6.80;;;;;;;15.97;49.35;99982.03;5123849;27;20078;-63
2023/10/08 03:04:45;;;;;;;11.70;6.75;;;;;;;16.02;49.31;99992.97;5124337;27;20027;-63
2023/10/08 03:07:20;;;;;;;12.00;6.63;;;;;;;16.05;49.29;99989.09;5124564;27;20059;-63
2023/10/08 03:09:49;;;;;;;15.55;6.57;;;;;;;16.12;48.86;99995.31;5124414;27;20178;-63
2023/10/08 03:12:16;;;;;;;10.38;6.45;;;;;;;16.05;49.01;99995.28;5124215;27;20036;-63
2023/10/08 03:14:49;;;;;;;14.13;7.85;;;;;;;15.34;50.43;100005.72;5124390;27;20032;-63
2023/10/08 03:17:19;;;;;;;15.83;7.17;;;;;;;15.06;51.20;99983.41;5124326;27;20040;-63
2023/10/08 03:19:46;;;;;;;15.40;7.60;;;;;;;15.20;51.29;99987.09;5124588;27;20469;-63
2023/10/08 03:22:12;;;;;;;16.60;8.52;;;;;;;15.17;51.19;99987.44;5125097;27;20035;-64
2023/10/08 03:24:38;;;;;;;21.13;9.00;;;;;;;15.46;50.33;99983.91;5132707;27;20344;-63
2023/10/08 03:27:20;;;;;;;20.33;8.57;;;;;;;15.59;49.58;99978.75;5132320;27;20035;-63
2023/10/08 03:29:46;;;;;;;16.00;8.70;;;;;;;15.84;49.30;99974.72;5123437;27;20026;-63
2023/10/08 03:32:16;;;;;;;20.27;8.98;;;;;;;16.04;48.69;99974.91;5122737;27;20046;-63
2023/10/08 03:34:50;;;;;;;19.70;9.00;;;;;;;16.14;48.44;99978.09;5131079;27;20259;-63
2023/10/08 03:37:21;;;;;;;17.55;8.55;;;;;;;16.13;48.21;99981.78;5123395;27;20247;-63
2023/10/08 03:39:51;;;;;;;18.23;8.95;;;;;;;16.15;48.36;99981.59;5123615;27;20023;-63
2023/10/08 03:42:23;;;;;;;16.27;8.98;;;;;;;15.98;49.04;99981.03;5123358;27;20065;-63
2023/10/08 03:44:52;;;;;;;17.30;8.77;;;;;;;15.64;49.71;99981.72;5131402;27;20252;-64
2023/10/08 03:47:26;;;;;;;16.80;8.50;;;;;;;15.61;50.16;99980.25;5132665;27;20040;-63
2023/10/08 03:49:54;;;;;;;13.30;7.38;;;;;;;15.61;50.45;99985.59;5130325;27;20023;-63
2023/10/08 03:52:23;;;;;;;15.07;7.47;;;;;;;15.59;50.92;99979.56;5122488;27;20035;-63
2023/10/08 03:54:55;;;;;;;15.75;7.75;;;;;;;15.53;50.74;99964.28;5122792;27;20271;-63
2023/10/08 03:57:28;;;;;;;12.10;7.63;;;;;;;15.59;50.50;99984.91;5124044;27;20035;-63
2023/10/08 03:59:58;;;;;;;15.25;8.00;;;;;;;15.57;50.47;99978.94;5122573;27;20035;-63
2023/10/08 04:02:40;;;;;;;16.27;8.13;;;;;;;15.76;50.01;99974.84;5132107;27;20261;-63
2023/10/08 04:05:19;;;;;;;17.10;6.97;;;;;;;15.89;49.95;99972.31;5122691;27;20036;-63
2023/10/08 04:08:16;;;;;;;12.80;7.00;;;;;;;15.99;49.08;99977.34;5122872;27;20184;-64
2023/10/08 04:13:09;;;;;;;14.68;6.93;;;;;;;16.20;48.36;99979.16;5123359;27;20032;-63
2023/10/08 04:15:41;;;;;;;13.38;6.68;;;;;;;16.25;48.26;99985.59;5123273;27;20050;-64
2023/10/08 04:18:11;;;;;;;18.00;8.00;;;;;;;16.36;48.22;99980.72;5122855;27;20225;-63
2023/10/08 04:20:51;;;;;;;19.42;8.55;;;;;;;16.33;48.36;99973.09;5122866;27;20046;-63
2023/10/08 04:23:23;;;;;;;26.25;16.98;;;;;;;16.50;48.20;99974.47;5122117;27;20032;-63
2023/10/08 04:25:54;;;;;;;18.77;13.13;;;;;;;16.63;47.53;99979.91;5122345;27;20299;-63
2023/10/08 04:28:22;;;;;;;21.88;13.13;;;;;;;16.72;47.52;99976.13;5122288;27;20055;-63
2023/10/08 04:30:48;;;;;;;16.05;12.35;;;;;;;16.73;47.77;99971.59;5130885;27;20257;-64
2023/10/08 04:33:14;;;;;;;16.90;9.18;;;;;;;16.74;47.35;99976.75;5122491;27;20057;-63
2023/10/08 04:36:03;;;;;;;12.15;10.93;;;;;;;16.60;47.32;99956.22;5129393;27;20085;-63
2023/10/08 04:38:28;;;;;;;17.35;14.73;;;;;;;16.72;47.53;99972.63;5135390;27;20039;-64
2023/10/08 04:40:54;;;;;;;12.27;9.20;;;;;;;16.49;47.78;99976.31;5135590;27;20031;-63
2023/10/08 04:43:25;;;;;;;12.07;9.45;;;;;;;16.44;47.82;99976.06;5132862;27;20092;-63
2023/10/08 04:48:52;;;;;;;11.45;9.52;;;;;;;16.34;48.18;99980.09;5102000;27;20051;-63
2023/10/08 04:51:21;;;;;;;11.55;10.45;;;;;;;16.51;47.66;99976.94;5131581;27;20031;-63
2023/10/08 04:53:47;;;;;;;9.40;6.30;;;;;;;16.63;46.96;99979.91;5129404;27;20044;-63
2023/10/08 04:56:13;;;;;;;9.45;5.07;;;;;;;16.74;46.37;99970.56;5120235;27;20031;-63
2023/10/08 04:58:40;;;;;;;6.95;4.15;;;;;;;16.79;46.07;99978.84;5129488;27;20038;-63
2023/10/08 05:09:22;;;;;;;8.57;5.00;;;;;;;17.05;44.00;99975.47;5120478;28;20311;-63
2023/10/08 05:20:17;;;;;;;10.60;6.70;;;;;;;17.34;42.44;99969.00;5120507;28;20031;-63
2023/10/08 05:22:44;;;;;;;12.05;7.60;;;;;;;17.42;42.14;99971.50;5121045;28;20058;-63
2023/10/08 05:30:16;;;;;;;17.88;8.55;;;;;;;17.75;41.96;99960.94;5119500;28;20044;-63
2023/10/08 06:07:56;;;;;;;12.93;5.53;;;;;;;19.39;39.35;99983.28;5134811;27;20035;-63
2023/10/08 06:13:09;;;;;;;14.18;7.20;;;;;;;19.73;36.76;99976.72;5141272;27;20035;-64
2023/10/08 06:18:25;;;;;;;15.48;7.65;;;;;;;20.15;35.30;99972.53;5142207;27;20027;-63
2023/10/08 06:20:55;;;;;;;16.60;7.40;;;;;;;20.21;35.35;99970.84;5141091;27;20039;-64
2023/10/08 06:23:22;;;;;;;23.30;8.32;;;;;;;20.29;34.08;99973.25;5141587;27;20374;-63
2023/10/08 06:25:58;;;;;;;20.52;9.15;;;;;;;20.46;34.01;99969.00;5141906;27;20051;-63
2023/10/08 06:28:26;;;;;;;19.73;8.38;;;;;;;20.59;33.53;99965.38;5131577;27;20023;-64
2023/10/08 06:30:53;;;;;;;15.65;7.43;;;;;;;20.78;33.51;99950.88;5141713;27;20410;-64
2023/10/08 06:33:25;;;;;;;13.35;6.18;;;;;;;20.84;33.19;99954.59;5140627;27;20037;-63
2023/10/08 06:36:05;;;;;;;17.75;5.10;;;;;;;20.97;32.52;99949.06;5141857;27;20031;-64
2023/10/08 06:38:32;;;;;;;18.95;5.70;;;;;;;21.06;32.78;99942.31;5141520;27;20027;-64
2023/10/08 06:41:09;;;;;;;14.43;5.28;;;;;;;21.03;32.63;99926.63;5141638;27;20097;-63
2023/10/08 06:43:36;;;;;;;11.93;4.88;;;;;;;21.25;32.13;99941.28;5140189;27;20042;-63
2023/10/08 06:46:12;;;;;;;13.32;4.15;;;;;;;21.42;31.83;99935.25;5139303;27;20043;-64
2023/10/08 06:48:45;;;;;;;12.43;4.53;;;;;;;21.50;31.82;99941.16;5139809;27;20115;-64
2023/10/08 06:51:14;;;;;;;9.23;4.60;;;;;;;21.58;31.07;99948.91;5139543;27;20375;-63
2023/10/08 06:53:46;;;;;;;22.85;7.85;;;;;;;21.71;30.84;99953.28;5139262;27;20039;-64
2023/10/08 06:56:12;;;;;;;12.63;5.43;;;;;;;21.78;31.05;99940.53;5139782;27;20201;-64
2023/10/08 06:58:39;;;;;;;15.60;4.95;;;;;;;21.88;31.11;99948.91;5122189;27;20041;-64
2023/10/08 07:01:05;;;;;;;12.55;5.70;;;;;;;21.95;31.20;99940.72;5140609;27;20390;-64
2023/10/08 07:03:35;;;;;;;13.15;6.13;;;;;;;22.09;30.45;99941.38;5140774;27;20031;-64
2023/10/08 07:06:02;;;;;;;14.73;5.35;;;;;;;22.23;30.40;99943.63;5139675;27;20344;-64
2023/10/08 07:08:32;;;;;;;11.57;5.95;;;;;;;22.34;30.52;99941.16;5133909;27;20038;-64
2023/10/08 07:11:00;;;;;;;13.50;4.97;;;;;;;22.47;30.68;99941.75;5140938;27;20102;-64
2023/10/08 07:13:29;;;;;;;8.38;4.78;;;;;;;22.60;30.97;99935.28;5140845;27;20045;-64
2023/10/08 07:15:55;;;;;;;7.93;4.43;;;;;;;22.68;30.44;99932.22;5134127;27;20046;-64
2023/10/08 07:18:24;;;;;;;9.65;4.32;;;;;;;22.77;30.41;99935.41;5139486;27;20047;-64
2023/10/08 07:20:53;;;;;;;9.45;4.18;;;;;;;22.90;30.41;99924.41;5140649;27;20047;-62
2023/10/08 07:23:27;;;;;;;11.40;4.95;;;;;;;23.02;29.62;99927.88;5139847;27;20233;-61
2023/10/08 07:26:10;;;;;;;17.33;5.90;;;;;;;23.11;29.22;99923.75;5140253;27;20344;-63
2023/10/08 07:28:42;;;;;;;8.55;5.03;;;;;;;23.22;29.17;99912.09;5140663;27;20102;-62
2023/10/08 07:31:22;;;;;;;11.77;5.20;;;;;;;23.30;29.09;99921.69;5140750;27;20054;-62
2023/10/08 07:34:15;;;;;;;10.48;4.82;;;;;;;23.37;28.51;99914.25;5135349;27;20332;-64
2023/10/08 07:36:35;;;;;;;15.30;5.38;;;;;;;23.49;29.08;99919.63;5139610;27;20047;-63
2023/10/08 07:39:07;;;;;;;9.90;5.00;;;;;;;23.57;28.79;99913.84;5140757;27;20329;-63
2023/10/08 07:41:33;;;;;;;11.00;4.63;;;;;;;23.67;28.82;99919.44;5137033;27;20073;-64
2023/10/08 07:43:59;;;;;;;9.57;4.38;;;;;;;23.75;28.62;99913.63;5140566;27;20042;-64
2023/10/08 07:46:26;;;;;;;9.35;4.30;;;;;;;23.80;28.40;99919.13;5140532;27;20035;-63
2023/10/08 07:48:52;;;;;;;7.40;4.38;;;;;;;23.93;29.29;99909.91;5140208;27;20038;-64
2023/10/08 07:51:24;;;;;;;9.23;3.65;;;;;;;24.07;28.68;99913.09;5140301;27;20041;-62
2023/10/08 07:53:55;;;;;;;7.00;3.47;;;;;;;24.18;28.20;99904.09;5139954;27;20043;-63
2023/10/08 07:56:21;;;;;;;7.97;3.22;;;;;;;24.24;28.03;99910.38;5140216;27;20317;-62
2023/10/08 07:58:47;;;;;;;7.03;3.30;;;;;;;24.31;28.32;99901.06;5140089;27;20336;-63
2023/10/08 08:01:14;;;;;;;7.60;3.58;;;;;;;24.33;28.06;99896.22;5125075;27;20028;-62
2023/10/08 08:03:41;;;;;;;8.70;3.35;;;;;;;24.42;28.71;99897.44;5131407;27;20034;-62
2023/10/08 08:06:07;;;;;;;10.35;4.65;;;;;;;24.46;29.01;99889.63;5123359;27;20076;-63
2023/10/08 08:08:35;;;;;;;6.38;3.50;;;;;;;24.59;28.07;99878.44;5122521;27;20057;-61
2023/10/08 08:11:07;;;;;;;9.50;3.58;;;;;;;24.72;28.00;99874.56;5131377;27;20082;-62
2023/10/08 08:13:36;;;;;;;7.68;3.10;;;;;;;24.85;27.67;99860.63;5122998;27;20241;-62
2023/10/08 08:16:16;;;;;;;16.08;4.07;;;;;;;24.86;27.01;99851.44;5121686;27;20386;-62
2023/10/08 08:18:49;;;;;;;7.68;3.30;;;;;;;24.90;26.76;99858.00;5121698;27;20249;-62
2023/10/08 08:21:15;;;;;;;;;;;;;;;24.95;27.19;99849.09;5131985;27;20054;-64
2023/10/08 08:23:47;;;;;;;21.33;4.70;;;;;;;24.99;26.66;99859.25;5121423;27;19919;-63
2023/10/08 08:26:29;;;;;;;16.02;4.00;;;;;;;25.08;26.44;99840.63;5121300;27;20349;-63
2023/10/08 08:28:59;;;;;;;8.00;3.53;;;;;;;25.14;26.11;99840.44;5121320;27;20218;-62
2023/10/08 08:31:26;;;;;;;8.85;3.60;;;;;;;25.21;25.84;99850.25;5121690;27;20094;-62
2023/10/08 08:33:53;;;;;;;14.68;4.82;;;;;;;25.26;26.33;99839.47;5124208;27;20027;-64
2023/10/08 08:36:22;;;;;;;8.13;3.13;;;;;;;25.35;25.54;99829.81;5126939;27;20027;-62
2023/10/08 08:38:48;;;;;;;14.55;3.95;;;;;;;25.38;25.62;99832.00;5121037;27;20050;-64
2023/10/08 08:41:18;;;;;;;19.80;4.47;;;;;;;25.45;25.23;99830.72;5120940;27;20039;-63
2023/10/08 08:43:47;;;;;;;10.68;3.47;;;;;;;25.46;25.40;99826.09;5121374;27;20082;-64
2023/10/08 08:46:13;;;;;;;6.60;3.30;;;;;;;25.53;26.00;99829.44;5121084;27;20127;-65
2023/10/08 08:48:46;;;;;;;12.20;3.47;;;;;;;25.58;25.24;99826.75;5120854;27;20031;-64
2023/10/08 08:51:13;;;;;;;11.07;3.70;;;;;;;25.57;25.66;99830.53;5119392;27;20040;-63
2023/10/08 08:53:40;;;;;;;12.15;4.07;;;;;;;25.63;25.58;99829.50;5121489;27;20057;-63
2023/10/08 08:56:09;;;;;;;9.75;3.97;;;;;;;25.75;25.25;99819.34;5119765;27;20106;-63
2023/10/08 08:58:37;;;;;;;12.73;3.88;;;;;;;25.78;25.17;99807.97;5129774;27;20031;-64
2023/10/08 09:01:05;;;;;;;9.32;3.33;;;;;;;25.85;25.51;99807.75;5121629;27;20100;-63
2023/10/08 09:03:30;;;;;;;11.13;3.75;;;;;;;25.89;25.11;99805.31;5121347;27;20585;-63
2023/10/08 09:05:59;;;;;;;7.30;3.00;;;;;;;25.88;24.73;99804.50;5122028;27;20432;-63
2023/10/08 09:08:35;;;;;;;8.43;4.03;;;;;;;25.92;24.96;99805.63;5121988;27;20032;-64
2023/10/08 09:11:03;;;;;;;6.65;3.55;;;;;;;25.95;24.53;99804.28;5121895;28;20046;-63
2023/10/08 09:13:29;;;;;;;8.27;3.35;;;;;;;25.95;25.00;99799.66;5121733;28;20042;-62
2023/10/08 09:16:03;;;;;;;4.53;2.67;;;;;;;25.96;24.93;99804.00;5121805;28;20050;-62
2023/10/08 09:18:32;;;;;;;6.50;2.45;;;;;;;25.91;24.78;99795.84;5130176;28;20037;-63
2023/10/08 09:21:10;;;;;;;14.30;3.60;;;;;;;25.88;25.38;99790.94;5121788;28;20221;-63
2023/10/08 09:23:43;;;;;;;17.92;4.70;;;;;;;25.94;25.98;99792.59;5123329;28;20080;-64
2023/10/08 09:26:13;;;;;;;12.80;3.63;;;;;;;25.93;25.38;99780.13;5121340;28;20040;-64
2023/10/08 09:28:40;;;;;;;7.93;3.25;;;;;;;25.98;26.11;99785.59;5120745;28;20050;-64
2023/10/08 09:31:11;;;;;;;8.50;3.10;;;;;;;26.01;25.72;99773.41;5120614;28;20055;-64
2023/10/08 09:33:37;;;;;;;10.85;3.85;;;;;;;26.06;26.21;99773.44;5120481;28;20764;-63
2023/10/08 09:36:06;;;;;;;8.93;3.20;;;;;;;26.15;26.06;99790.03;5121866;27;20237;-64
2023/10/08 09:38:33;;;;;;;10.32;4.47;;;;;;;26.19;25.77;99774.88;5121363;28;20028;-63
2023/10/08 09:41:02;;;;;;;9.93;4.65;;;;;;;26.18;25.28;99771.34;5130371;28;20043;-64
2023/10/08 09:43:29;;;;;;;13.63;4.03;;;;;;;26.15;25.17;99773.75;5124855;27;20237;-64
2023/10/08 09:46:09;;;;;;;7.88;4.53;;;;;;;26.20;25.59;99768.38;5124398;27;20059;-63
2023/10/08 09:48:38;;;;;;;11.25;3.35;;;;;;;26.23;25.84;99762.41;5124645;27;20394;-64
2023/10/08 09:51:06;;;;;;;12.43;3.72;;;;;;;26.28;25.09;99757.00;5124602;27;20041;-63
2023/10/08 09:53:53;;;;;;;10.77;4.13;;;;;;;26.32;25.13;99756.25;5124448;27;20102;-63
2023/10/08 09:56:20;;;;;;;6.80;2.92;;;;;;;26.42;24.92;99758.19;5132794;27;20031;-63
2023/10/08 09:58:49;;;;;;;7.00;3.33;;;;;;;26.48;24.85;99751.69;5124719;27;20088;-64
2023/10/08 10:01:17;;;;;;;7.97;2.85;;;;;;;26.56;24.98;99755.78;5132863;27;20237;-63
2023/10/08 10:03:44;;;;;;;7.18;4.63;;;;;;;26.51;25.66;99742.19;5124354;27;20234;-63
2023/10/08 10:06:18;;;;;;;6.05;2.90;;;;;;;26.56;25.67;99736.78;5124592;27;20566;-64
2023/10/08 10:08:44;;;;;;;;;;;;;;;26.64;25.63;99734.34;5125488;27;20081;-64
2023/10/08 10:11:10;;;;;;;10.57;3.38;;;;;;;26.63;25.46;99732.72;5125147;27;19924;-64
2023/10/08 10:13:50;;;;;;;9.20;3.00;;;;;;;26.74;25.25;99733.56;5125099;27;20035;-63
2023/10/08 10:16:24;;;;;;;15.55;3.60;;;;;;;26.57;25.49;99692.25;5132302;27;20043;-64
2023/10/08 10:18:49;;;;;;;26.58;5.35;;;;;;;26.77;25.53;99724.88;5123632;27;20120;-63
2023/10/08 10:21:15;;;;;;;20.17;4.10;;;;;;;26.79;25.26;99716.47;5123874;27;20101;-64
2023/10/08 10:23:45;;;;;;;16.88;4.47;;;;;;;26.76;25.86;99717.81;5122356;27;20036;-64
2023/10/08 10:26:28;;;;;;;14.63;4.07;;;;;;;26.78;25.83;99707.50;5134603;27;20038;-64
2023/10/08 10:29:14;;;;;;;12.40;3.95;;;;;;;26.80;26.43;99699.88;5128281;27;20070;-65
2023/10/08 10:31:53;;;;;;;12.55;4.03;;;;;;;26.88;26.57;99704.78;5125387;27;20035;-64
2023/10/08 10:34:21;;;;;;;17.70;3.58;;;;;;;26.97;26.29;99699.63;5124595;27;20077;-64
2023/10/08 10:36:55;;;;;;;9.68;4.38;;;;;;;27.05;25.87;99691.00;5125202;27;20039;-64
2023/10/08 10:39:28;;;;;;;9.27;3.10;;;;;;;27.04;25.96;99683.91;5124870;27;20026;-63
2023/10/08 10:42:05;;;;;;;14.25;4.05;;;;;;;27.00;26.26;99680.91;5124262;27;20417;-64
2023/10/08 10:44:32;;;;;;;6.85;2.90;;;;;;;27.00;25.66;99674.66;5125057;27;20031;-63
2023/10/08 10:49:52;;;;;;;8.73;4.22;;;;;;;27.14;25.76;99677.69;5124301;27;20042;-64
2023/10/08 10:52:31;;;;;;;6.43;3.22;;;;;;;27.16;25.89;99681.75;5125598;27;20080;-64
2023/10/08 10:55:18;;;;;;;7.45;3.42;;;;;;;27.11;25.82;99668.19;5128805;27;20043;-64
2023/10/08 10:58:11;;;;;;;5.72;2.60;;;;;;;27.07;26.51;99672.53;5137110;27;20077;-63
2023/10/08 11:03:09;;;;;;;5.13;2.53;;;;;;;27.08;26.12;99657.84;5136279;27;20028;-63
2023/10/08 11:05:37;;;;;;;7.38;3.05;;;;;;;27.14;26.58;99655.94;5137685;27;20046;-64
2023/10/08 11:08:06;;;;;;;8.25;2.60;;;;;;;27.17;26.26;99658.94;5136373;27;20031;-63
2023/10/08 11:10:51;;;;;;;8.07;3.17;;;;;;;27.24;26.48;99659.47;5135271;27;20046;-63
2023/10/08 11:13:21;;;;;;;10.15;3.67;;;;;;;27.25;26.30;99652.13;5136706;27;20476;-63
2023/10/08 11:15:51;;;;;;;8.07;2.47;;;;;;;27.24;26.23;99642.34;5136127;27;20072;-63
2023/10/08 11:18:19;;;;;;;5.25;2.40;;;;;;;27.25;26.49;99636.63;5136334;27;20213;-64
2023/10/08 11:20:46;;;;;;;7.07;3.58;;;;;;;27.25;26.46;99639.34;5136596;27;20066;-64
2023/10/08 11:23:34;;;;;;;7.90;3.03;;;;;;;27.27;25.96;99639.06;5137410;27;20121;-63
2023/10/08 11:26:04;;;;;;;6.85;2.30;;;;;;;27.25;25.82;99644.78;5136592;27;20260;-63
2023/10/08 11:28:41;;;;;;;9.00;3.03;;;;;;;27.26;25.53;99640.97;5136747;27;20035;-64
2023/10/08 11:31:10;;;;;;;7.85;2.47;;;;;;;27.19;26.81;99628.75;5132268;27;20057;-64
2023/10/08 11:33:42;;;;;;;5.93;2.83;;;;;;;27.23;26.39;99640.72;5105824;27;20051;-65
2023/10/08 11:36:18;;;;;;;10.48;2.83;;;;;;;27.19;26.34;99631.47;5121872;27;20282;-63
2023/10/08 11:38:53;;;;;;;9.45;3.20;;;;;;;27.15;26.56;99628.50;5123784;27;20317;-63
2023/10/08 11:41:27;;;;;;;10.30;2.90;;;;;;;27.16;26.74;99624.69;5121848;27;20042;-63
2023/10/08 11:43:56;;;;;;;12.18;3.53;;;;;;;27.22;26.66;99615.44;5133032;27;20039;-64
2023/10/08 11:46:38;;;;;;;10.40;3.85;;;;;;;27.29;26.36;99617.88;5123733;27;20050;-63
2023/10/08 11:49:07;;;;;;;9.63;3.10;;;;;;;27.30;25.76;99614.88;5123073;27;20461;-63
2023/10/08 11:51:34;;;;;;;5.72;2.42;;;;;;;27.27;26.36;99601.03;5123890;27;20065;-63
2023/10/08 11:54:05;;;;;;;7.68;3.15;;;;;;;27.32;26.21;99611.88;5122568;27;20050;-63
2023/10/08 11:56:33;;;;;;;11.00;4.25;;;;;;;27.25;26.11;99595.84;5123010;27;20039;-64
2023/10/08 11:59:01;;;;;;;10.27;2.92;;;;;;;27.21;26.96;99597.50;5126924;27;20148;-63
2023/10/08 12:01:27;;;;;;;4.82;2.47;;;;;;;27.26;26.07;99597.47;5126344;27;20214;-63
2023/10/08 12:03:59;;;;;;;6.10;2.70;;;;;;;27.28;26.23;99600.75;5121975;27;20074;-63
2023/10/08 12:06:29;;;;;;;5.80;2.40;;;;;;;27.26;26.28;99586.63;5121531;27;20388;-63
2023/10/08 12:08:58;;;;;;;10.43;3.47;;;;;;;27.32;26.33;99590.94;5122131;27;20040;-63
2023/10/08 12:11:30;;;;;;;8.35;3.67;;;;;;;27.33;26.18;99591.75;5120232;27;20197;-63
2023/10/08 12:13:58;;;;;;;8.90;3.42;;;;;;;27.32;25.94;99590.13;5122078;27;20225;-63
2023/10/08 12:16:26;;;;;;;6.25;3.45;;;;;;;27.30;26.33;99576.00;5122847;27;20047;-63
2023/10/08 12:18:58;;;;;;;11.30;4.28;;;;;;;27.34;26.27;99585.22;5128432;27;20042;-62
2023/10/08 12:21:24;;;;;;;8.40;3.10;;;;;;;27.28;26.39;99580.91;5139715;27;20043;-63
2023/10/08 12:23:51;;;;;;;6.25;3.40;;;;;;;27.25;26.46;99574.09;5139207;27;20043;-64
2023/10/08 12:26:18;;;;;;;13.00;5.35;;;;;;;27.28;26.55;99576.28;5139068;27;20046;-63
2023/10/08 12:28:45;;;;;;;7.75;3.53;;;;;;;27.32;25.85;99580.06;5138636;27;20027;-64
2023/10/08 12:31:24;;;;;;;10.60;3.53;;;;;;;27.41;25.71;99577.59;5138016;27;20318;-63
2023/10/08 12:33:53;;;;;;;6.75;3.03;;;;;;;27.37;25.72;99579.25;5127940;27;20054;-63
2023/10/08 12:36:22;;;;;;;7.38;3.30;;;;;;;27.30;25.97;99568.66;5138578;27;20045;-63
2023/10/08 12:38:48;;;;;;;7.72;3.38;;;;;;;27.32;25.68;99568.38;5138075;27;20332;-63
2023/10/08 12:41:14;;;;;;;5.57;3.42;;;;;;;27.36;25.39;99569.47;5139557;27;20448;-63
2023/10/08 12:43:52;;;;;;;5.72;2.90;;;;;;;27.32;25.62;99568.38;5138910;27;20422;-63
2023/10/08 12:46:18;;;;;;;6.53;3.45;;;;;;;27.38;26.29;99566.47;5138541;27;20042;-63
2023/10/08 12:48:47;;;;;;;7.22;4.55;;;;;;;27.37;26.11;99564.84;5139097;27;20050;-61
2023/10/08 12:51:14;;;;;;;13.48;4.85;;;;;;;27.42;26.35;99567.53;5138790;27;20088;-62
2023/10/08 12:53:41;;;;;;;9.75;4.30;;;;;;;27.46;25.95;99571.34;5138294;27;20278;-62
2023/10/08 12:56:14;;;;;;;8.05;3.90;;;;;;;27.50;25.86;99564.25;5138055;27;20400;-61
2023/10/08 12:58:41;;;;;;;5.07;3.45;;;;;;;27.56;26.05;99565.84;5133679;27;20065;-62
2023/10/08 13:01:09;;;;;;;5.35;4.00;;;;;;;27.56;25.76;99571.28;5138774;27;20088;-61
2023/10/08 13:03:41;;;;;;;9.15;3.30;;;;;;;27.55;25.35;99562.31;5138022;27;20023;-61